Time;durP1;ratioP1;P1;durP2;ratioP2;P2;SDS_P1;SDS_P2;PMS_P1;PMS_P2;Temp;Humidity;BMP_temperature;BMP_pressure;BME280_temperature;BME280_humidity;BME280_pressure;Samples;Min_cycle;Max_cycle;Signal;HPM_P1;HPM_P2
2022/08/29 00:00:17;;;;;;;4.10;3.33;;;16.10;99.90;;;;;;5032564;28;20505;-65
2022/08/29 00:02:44;;;;;;;8.30;3.17;;;16.00;99.90;;;;;;5031561;28;20484;-65
2022/08/29 00:05:12;;;;;;;4.30;3.70;;;16.00;99.90;;;;;;5032437;28;20952;-66
2022/08/29 00:07:39;;;;;;;3.63;3.20;;;16.00;99.90;;;;;;5032123;28;20809;-65
2022/08/29 00:10:09;;;;;;;4.87;3.87;;;16.00;99.90;;;;;;5032441;28;20968;-66
2022/08/29 00:12:37;;;;;;;3.43;3.10;;;16.00;99.90;;;;;;5031868;28;20442;-66
2022/08/29 00:15:09;;;;;;;3.80;3.37;;;16.00;99.90;;;;;;5032434;28;20511;-65
2022/08/29 00:17:36;;;;;;;4.10;3.50;;;16.10;99.90;;;;;;5032054;28;20533;-65
2022/08/29 00:20:05;;;;;;;3.80;2.97;;;16.10;99.90;;;;;;5031361;28;20440;-65
2022/08/29 00:22:33;;;;;;;4.23;3.37;;;16.00;99.90;;;;;;5032181;28;21066;-65
2022/08/29 00:25:03;;;;;;;4.07;3.67;;;16.00;99.90;;;;;;5031716;28;20920;-67
2022/08/29 00:27:30;;;;;;;2.63;2.17;;;16.00;99.90;;;;;;5032265;28;20434;-66
2022/08/29 00:29:57;;;;;;;3.60;3.00;;;16.00;99.90;;;;;;5035142;28;20441;-67
2022/08/29 00:32:33;;;;;;;5.40;4.03;;;16.10;99.90;;;;;;5036509;28;20441;-65
2022/08/29 00:35:00;;;;;;;4.67;4.00;;;16.10;99.90;;;;;;5036092;28;20962;-65
2022/08/29 00:37:28;;;;;;;3.97;3.40;;;16.10;99.90;;;;;;5036523;28;20452;-65
2022/08/29 00:39:55;;;;;;;4.50;3.17;;;16.10;99.90;;;;;;5035537;28;20438;-66
2022/08/29 00:42:22;;;;;;;5.03;3.40;;;16.00;99.90;;;;;;5035789;28;20572;-65
2022/08/29 00:44:49;;;;;;;5.13;2.83;;;15.90;99.90;;;;;;5016444;28;20447;-65
2022/08/29 00:47:21;;;;;;;7.13;2.97;;;15.90;99.90;;;;;;5016164;28;20481;-66
2022/08/29 00:49:54;;;;;;;10.70;5.37;;;16.00;99.90;;;;;;5035696;28;20430;-65
2022/08/29 00:52:30;;;;;;;4.97;3.97;;;15.90;99.90;;;;;;5036084;28;20443;-66
2022/08/29 00:54:58;;;;;;;5.10;4.20;;;16.00;99.90;;;;;;5016347;28;20791;-65
2022/08/29 00:57:28;;;;;;;6.07;3.50;;;15.90;99.90;;;;;;5016299;28;20850;-65
2022/08/29 00:59:55;;;;;;;4.50;3.50;;;15.90;99.90;;;;;;5035714;28;20441;-65
2022/08/29 01:02:22;;;;;;;11.90;4.00;;;15.80;99.90;;;;;;5035813;28;21082;-65
2022/08/29 01:04:51;;;;;;;5.13;3.57;;;15.80;99.90;;;;;;5034979;28;20461;-66
2022/08/29 01:07:19;;;;;;;5.10;3.60;;;15.80;99.90;;;;;;5035809;28;20446;-65
2022/08/29 01:09:46;;;;;;;11.80;4.97;;;15.80;99.90;;;;;;5034393;28;20865;-65
2022/08/29 01:12:16;;;;;;;7.67;4.07;;;15.80;99.90;;;;;;5035497;28;20449;-66
2022/08/29 01:14:48;;;;;;;6.53;3.37;;;15.90;99.90;;;;;;5035226;28;20891;-66
2022/08/29 01:17:19;;;;;;;5.60;3.23;;;15.90;99.90;;;;;;5035516;28;20900;-66
2022/08/29 01:19:53;;;;;;;4.17;3.33;;;15.90;99.90;;;;;;5035052;28;20971;-65
2022/08/29 01:22:40;;;;;;;6.90;3.73;;;15.90;99.90;;;;;;5035372;28;20542;-65
2022/08/29 01:25:13;;;;;;;4.47;3.00;;;15.90;99.90;;;;;;5032959;28;20464;-65
2022/08/29 01:27:44;;;;;;;5.13;3.30;;;15.70;99.90;;;;;;5035205;28;20465;-66
2022/08/29 01:30:13;;;;;;;4.77;3.13;;;15.70;99.90;;;;;;5034848;28;20488;-66
2022/08/29 01:32:41;;;;;;;3.93;3.30;;;15.70;99.90;;;;;;5035016;28;20529;-65
2022/08/29 01:35:08;;;;;;;5.70;4.13;;;15.60;99.90;;;;;;5035159;28;20450;-67
2022/08/29 01:37:38;;;;;;;3.93;3.43;;;15.60;99.90;;;;;;5034746;28;20442;-65
2022/08/29 01:40:06;;;;;;;4.07;3.30;;;15.50;99.90;;;;;;5035083;28;20473;-65
2022/08/29 01:42:36;;;;;;;4.13;3.40;;;15.60;99.90;;;;;;5034565;28;20469;-66
2022/08/29 01:45:04;;;;;;;4.30;3.03;;;15.50;99.90;;;;;;5034769;28;20446;-65
2022/08/29 01:47:34;;;;;;;5.70;3.57;;;15.50;99.90;;;;;;5034469;28;20519;-65
2022/08/29 01:50:02;;;;;;;7.83;4.27;;;15.40;99.90;;;;;;5034843;28;20453;-65
2022/08/29 01:52:31;;;;;;;5.60;3.20;;;15.30;99.90;;;;;;5033444;28;20437;-66
2022/08/29 01:54:58;;;;;;;10.70;3.50;;;15.30;99.90;;;;;;5034615;28;20445;-66
2022/08/29 01:57:25;;;;;;;6.00;3.40;;;15.20;99.90;;;;;;5035119;28;20518;-65
2022/08/29 01:59:54;;;;;;;5.40;4.07;;;15.20;99.90;;;;;;5034561;28;20442;-65
2022/08/29 02:02:26;;;;;;;9.97;3.90;;;15.30;99.90;;;;;;5034785;28;20441;-65
2022/08/29 02:04:56;;;;;;;7.70;4.63;;;15.30;99.90;;;;;;5033938;28;20445;-65
2022/08/29 02:07:24;;;;;;;13.20;4.70;;;15.40;99.90;;;;;;5034486;28;20434;-65
2022/08/29 02:09:51;;;;;;;9.13;4.20;;;15.40;99.90;;;;;;5033373;28;20577;-65
2022/08/29 02:12:19;;;;;;;6.03;4.33;;;15.30;99.90;;;;;;5034712;28;20434;-65
2022/08/29 02:14:47;;;;;;;4.80;4.03;;;15.40;99.90;;;;;;5033807;28;20438;-65
2022/08/29 02:17:15;;;;;;;4.00;3.20;;;15.40;99.90;;;;;;5034214;28;20444;-65
2022/08/29 02:19:43;;;;;;;17.53;4.80;;;15.50;99.90;;;;;;5033937;28;20465;-65
2022/08/29 02:22:11;;;;;;;9.13;5.30;;;15.50;99.90;;;;;;5034514;28;20445;-65
2022/08/29 02:24:38;;;;;;;12.03;5.77;;;15.50;99.90;;;;;;5033738;28;20837;-66
2022/08/29 02:27:06;;;;;;;5.40;4.90;;;15.50;99.90;;;;;;5034382;28;20516;-65
2022/08/29 02:29:33;;;;;;;22.77;5.00;;;15.50;99.90;;;;;;5033876;28;20510;-66
2022/08/29 02:32:00;;;;;;;6.90;3.40;;;15.50;99.90;;;;;;5032764;28;20477;-65
2022/08/29 02:34:32;;;;;;;29.23;4.90;;;15.40;99.90;;;;;;5033825;28;20442;-65
2022/08/29 02:36:59;;;;;;;33.33;5.43;;;15.40;99.90;;;;;;5034114;28;20954;-65
2022/08/29 02:39:26;;;;;;;25.70;4.43;;;15.30;99.90;;;;;;5033817;28;20449;-65
2022/08/29 02:41:53;;;;;;;23.37;3.47;;;15.30;99.90;;;;;;5033835;28;20521;-66
2022/08/29 02:44:21;;;;;;;13.40;3.87;;;15.30;99.90;;;;;;5033563;28;20481;-66
2022/08/29 02:46:48;;;;;;;7.70;3.80;;;15.30;99.90;;;;;;5033621;28;20465;-65
2022/08/29 02:49:16;;;;;;;7.00;4.20;;;15.20;99.90;;;;;;5033458;28;20438;-65
2022/08/29 02:51:44;;;;;;;21.90;3.93;;;15.30;99.90;;;;;;5033346;28;20430;-66
2022/08/29 02:54:12;;;;;;;10.73;5.77;;;15.30;99.90;;;;;;5033415;28;20508;-65
2022/08/29 02:56:39;;;;;;;20.57;4.40;;;15.20;99.90;;;;;;5033742;28;20797;-65
2022/08/29 02:59:07;;;;;;;11.33;3.73;;;15.10;99.90;;;;;;5033207;28;20484;-65
2022/08/29 03:01:37;;;;;;;8.80;2.90;;;15.10;99.90;;;;;;5033675;28;20446;-66
2022/08/29 03:04:05;;;;;;;11.30;3.57;;;15.10;99.90;;;;;;5033165;28;20481;-65
2022/08/29 03:06:32;;;;;;;17.40;3.30;;;15.10;99.90;;;;;;5033528;28;20434;-65
2022/08/29 03:09:01;;;;;;;10.77;2.93;;;15.10;99.90;;;;;;5032859;28;20457;-66
2022/08/29 03:11:28;;;;;;;4.00;2.80;;;15.00;99.90;;;;;;5033502;28;20500;-66
2022/08/29 03:13:56;;;;;;;11.60;2.93;;;15.10;99.90;;;;;;5032464;28;20434;-65
2022/08/29 03:16:23;;;;;;;9.53;2.83;;;15.10;99.90;;;;;;5033167;28;20441;-65
2022/08/29 03:18:50;;;;;;;8.07;2.20;;;15.10;99.90;;;;;;5032895;28;20434;-67
2022/08/29 03:21:19;;;;;;;6.57;2.50;;;15.10;99.90;;;;;;5032974;28;20438;-66
2022/08/29 03:23:47;;;;;;;6.83;2.63;;;15.10;99.90;;;;;;5032922;28;20539;-65
2022/08/29 03:26:16;;;;;;;6.57;3.27;;;15.00;99.90;;;;;;5032676;28;20448;-70
2022/08/29 03:28:43;;;;;;;5.63;2.63;;;15.00;99.90;;;;;;5013194;28;20434;-65
2022/08/29 03:31:11;;;;;;;7.50;3.20;;;15.00;99.90;;;;;;5013479;28;20851;-65
2022/08/29 03:33:38;;;;;;;4.20;2.13;;;14.90;99.90;;;;;;5032252;28;20491;-65
2022/08/29 03:36:08;;;;;;;5.27;2.17;;;15.00;99.90;;;;;;5032941;28;20800;-65
2022/08/29 03:38:36;;;;;;;6.57;3.40;;;14.90;99.90;;;;;;5032539;28;20466;-65
2022/08/29 03:41:03;;;;;;;5.93;3.20;;;15.00;99.90;;;;;;5032899;28;20434;-65
2022/08/29 03:43:32;;;;;;;5.07;3.63;;;15.00;99.90;;;;;;5032534;28;20478;-65
2022/08/29 03:46:01;;;;;;;7.77;3.23;;;15.00;99.90;;;;;;5032545;28;20448;-65
2022/08/29 03:48:28;;;;;;;9.43;3.27;;;15.00;99.90;;;;;;5032490;28;20430;-66
2022/08/29 03:50:55;;;;;;;8.10;3.67;;;14.90;99.90;;;;;;5032827;28;20437;-65
2022/08/29 03:53:22;;;;;;;4.03;3.03;;;14.80;99.90;;;;;;5031924;28;20448;-65
2022/08/29 03:55:50;;;;;;;4.50;2.50;;;14.80;99.90;;;;;;5032580;28;20504;-69
2022/08/29 03:58:17;;;;;;;10.33;2.83;;;14.80;99.90;;;;;;5032324;28;20478;-65
2022/08/29 04:00:46;;;;;;;4.00;2.80;;;14.90;99.90;;;;;;5032609;28;20483;-66
2022/08/29 04:03:13;;;;;;;3.30;2.00;;;14.90;99.90;;;;;;5031523;28;20471;-65
2022/08/29 04:05:40;;;;;;;11.13;3.00;;;14.80;99.90;;;;;;5032560;28;20437;-65
2022/08/29 04:08:08;;;;;;;6.17;3.60;;;14.80;99.90;;;;;;5030467;28;20445;-65
2022/08/29 04:10:38;;;;;;;3.83;2.60;;;14.80;99.90;;;;;;5031760;28;20434;-66
2022/08/29 04:13:07;;;;;;;5.07;3.00;;;14.80;99.90;;;;;;5032580;28;20441;-66
2022/08/29 04:15:36;;;;;;;4.07;2.87;;;14.80;99.90;;;;;;5032132;28;20442;-66
2022/08/29 04:18:07;;;;;;;4.37;3.07;;;14.80;99.90;;;;;;5031641;28;20469;-66
2022/08/29 04:20:38;;;;;;;4.30;3.00;;;14.80;99.90;;;;;;5032685;28;20446;-65
2022/08/29 04:23:06;;;;;;;5.47;4.13;;;14.80;99.90;;;;;;5032426;28;20442;-65
2022/08/29 04:25:35;;;;;;;6.40;4.50;;;14.80;99.90;;;;;;5031940;28;20434;-65
2022/08/29 04:28:04;;;;;;;7.20;3.80;;;14.80;99.90;;;;;;5031691;28;20492;-66
2022/08/29 04:30:31;;;;;;;5.47;3.13;;;14.80;99.90;;;;;;5032340;28;20481;-66
2022/08/29 04:32:59;;;;;;;6.10;2.87;;;14.80;99.90;;;;;;5031788;28;20956;-66
2022/08/29 04:35:28;;;;;;;11.10;3.27;;;14.90;99.90;;;;;;5028955;28;20923;-65
2022/08/29 04:37:55;;;;;;;12.50;3.23;;;14.90;99.90;;;;;;5030424;28;20955;-65
2022/08/29 04:40:23;;;;;;;5.47;3.10;;;14.80;99.90;;;;;;5030973;28;20533;-65
2022/08/29 04:42:51;;;;;;;3.67;2.97;;;14.80;99.90;;;;;;5030111;28;20434;-65
2022/08/29 04:45:20;;;;;;;8.87;3.67;;;14.90;99.90;;;;;;5029205;28;20553;-65
2022/08/29 04:47:48;;;;;;;6.70;3.33;;;14.90;99.90;;;;;;5028518;28;20501;-65
2022/08/29 04:50:18;;;;;;;12.20;3.60;;;14.80;99.90;;;;;;5029072;28;20438;-66
2022/08/29 04:52:47;;;;;;;10.40;3.80;;;14.80;99.90;;;;;;5024222;28;20438;-68
2022/08/29 04:55:16;;;;;;;11.60;3.80;;;14.70;99.90;;;;;;5030347;28;20469;-65
2022/08/29 04:57:43;;;;;;;11.50;4.50;;;14.70;99.90;;;;;;5030177;28;20444;-65
2022/08/29 05:00:14;;;;;;;6.47;3.77;;;14.80;99.90;;;;;;5029754;28;20932;-65
2022/08/29 05:02:43;;;;;;;5.97;3.97;;;14.80;99.90;;;;;;5030393;28;20446;-65
2022/08/29 05:05:12;;;;;;;5.83;3.73;;;14.80;99.90;;;;;;5028360;28;20482;-65
2022/08/29 05:07:41;;;;;;;20.67;4.40;;;14.80;99.90;;;;;;5030050;28;20932;-65
2022/08/29 05:10:13;;;;;;;26.90;5.97;;;14.90;99.90;;;;;;5028970;28;20461;-65
2022/08/29 05:12:40;;;;;;;10.63;4.20;;;14.90;99.90;;;;;;5030358;28;20446;-65
2022/08/29 05:15:08;;;;;;;4.93;3.07;;;14.90;99.90;;;;;;5027736;28;20438;-66
2022/08/29 05:17:35;;;;;;;12.93;3.20;;;14.90;99.90;;;;;;5026187;28;20491;-66
2022/08/29 05:20:05;;;;;;;6.63;3.20;;;15.00;99.90;;;;;;5032474;28;20445;-66
2022/08/29 05:22:32;;;;;;;11.73;3.40;;;15.00;99.90;;;;;;5032709;28;20464;-66
2022/08/29 05:24:59;;;;;;;30.13;3.20;;;15.00;99.90;;;;;;5033584;28;20972;-65
2022/08/29 05:27:28;;;;;;;10.73;5.00;;;15.00;99.90;;;;;;5033700;28;20507;-65
2022/08/29 05:29:57;;;;;;;12.23;4.70;;;14.90;99.90;;;;;;5033415;28;20433;-65
2022/08/29 05:32:24;;;;;;;9.90;4.40;;;14.90;99.90;;;;;;5032698;28;20516;-65
2022/08/29 05:34:51;;;;;;;4.13;3.50;;;14.90;99.90;;;;;;5033561;28;20434;-65
2022/08/29 05:37:20;;;;;;;10.93;3.50;;;15.00;99.90;;;;;;5033357;28;20937;-65
2022/08/29 05:39:49;;;;;;;11.03;3.00;;;15.00;99.90;;;;;;5032166;28;20445;-67
2022/08/29 05:42:20;;;;;;;6.60;2.90;;;15.00;99.90;;;;;;5033509;28;20508;-65
2022/08/29 05:44:53;;;;;;;3.50;1.97;;;15.00;99.90;;;;;;5032978;28;20551;-65
2022/08/29 05:47:21;;;;;;;2.90;2.13;;;15.00;99.90;;;;;;5025904;28;20476;-66
2022/08/29 05:49:48;;;;;;;4.13;2.27;;;15.10;99.90;;;;;;5031523;28;20441;-66
2022/08/29 05:52:18;;;;;;;3.33;2.20;;;15.10;99.90;;;;;;5032947;28;21665;-65
2022/08/29 05:54:45;;;;;;;4.07;2.77;;;15.20;99.90;;;;;;5033033;28;20445;-66
2022/08/29 05:57:15;;;;;;;2.90;2.13;;;15.30;99.90;;;;;;5028280;28;20532;-66
2022/08/29 05:59:42;;;;;;;3.43;2.50;;;15.40;99.90;;;;;;5032867;28;20430;-66
2022/08/29 06:02:11;;;;;;;3.33;2.40;;;15.50;99.90;;;;;;5032471;28;20438;-65
2022/08/29 06:04:44;;;;;;;3.37;2.70;;;15.50;99.90;;;;;;5032756;28;20489;-65
2022/08/29 06:07:11;;;;;;;2.60;1.63;;;15.60;99.90;;;;;;5025113;28;20441;-67
2022/08/29 06:09:40;;;;;;;2.73;1.83;;;15.60;99.90;;;;;;5026047;28;20552;-66
2022/08/29 06:12:09;;;;;;;4.20;2.20;;;15.60;99.90;;;;;;5031814;28;20861;-66
2022/08/29 06:14:36;;;;;;;5.83;2.57;;;15.50;99.90;;;;;;5033620;28;20500;-65
2022/08/29 06:17:04;;;;;;;4.47;3.27;;;15.60;99.90;;;;;;5015216;28;20526;-65
2022/08/29 06:19:34;;;;;;;4.73;2.80;;;15.70;99.90;;;;;;5020067;28;20520;-66
2022/08/29 06:22:03;;;;;;;3.83;2.93;;;15.80;99.90;;;;;;5034606;28;20444;-66
2022/08/29 06:24:33;;;;;;;3.53;3.23;;;15.90;99.90;;;;;;5034531;28;20481;-66
2022/08/29 06:27:01;;;;;;;2.97;2.17;;;16.00;99.90;;;;;;5033657;28;20446;-66
2022/08/29 06:29:28;;;;;;;3.10;2.47;;;16.10;99.90;;;;;;5034699;28;20532;-66
2022/08/29 06:31:56;;;;;;;4.93;3.07;;;16.30;99.90;;;;;;5034924;28;20465;-65
2022/08/29 06:34:23;;;;;;;4.40;2.63;;;16.40;99.90;;;;;;5034961;28;20488;-65
2022/08/29 06:36:52;;;;;;;4.70;3.47;;;16.60;99.90;;;;;;5034905;28;20473;-65
2022/08/29 06:39:19;;;;;;;3.57;2.70;;;16.70;99.90;;;;;;5034610;28;20481;-65
2022/08/29 06:41:47;;;;;;;4.87;2.73;;;16.90;99.90;;;;;;5034819;28;20438;-65
2022/08/29 06:44:14;;;;;;;4.40;2.70;;;17.00;99.90;;;;;;5034645;28;20509;-66
2022/08/29 06:46:42;;;;;;;3.80;2.67;;;17.20;99.90;;;;;;5034032;28;21034;-65
2022/08/29 06:49:12;;;;;;;4.40;2.43;;;17.30;99.90;;;;;;5034633;28;20884;-66
2022/08/29 06:51:41;;;;;;;3.77;3.00;;;17.40;99.90;;;;;;5034425;28;20476;-65
2022/08/29 06:54:11;;;;;;;3.90;2.77;;;17.60;99.90;;;;;;5034399;28;20493;-65
2022/08/29 06:56:39;;;;;;;4.47;3.50;;;17.70;99.90;;;;;;5034086;28;20967;-66
2022/08/29 06:59:06;;;;;;;4.23;3.80;;;17.90;99.90;;;;;;5030298;28;20489;-65
2022/08/29 07:01:33;;;;;;;3.63;2.70;;;18.00;99.90;;;;;;5032002;28;20533;-66
2022/08/29 07:04:02;;;;;;;2.93;2.30;;;18.20;99.90;;;;;;5029637;28;20490;-66
2022/08/29 07:06:29;;;;;;;3.17;2.60;;;18.30;99.90;;;;;;5032415;28;20517;-66
2022/08/29 07:08:58;;;;;;;3.90;2.63;;;18.50;99.90;;;;;;5032408;28;20448;-67
2022/08/29 07:11:29;;;;;;;4.60;3.63;;;18.70;99.90;;;;;;5031791;28;21016;-65
2022/08/29 07:13:57;;;;;;;3.90;2.77;;;18.80;99.90;;;;;;5032331;28;20440;-67
2022/08/29 07:16:25;;;;;;;5.00;2.57;;;19.00;99.90;;;;;;5031951;28;20530;-65
2022/08/29 07:18:52;;;;;;;3.70;2.70;;;19.20;99.90;;;;;;5032245;28;20491;-65
2022/08/29 07:21:21;;;;;;;4.17;2.80;;;19.40;99.90;;;;;;5028504;28;20942;-66
2022/08/29 07:23:48;;;;;;;4.47;3.10;;;19.60;99.90;;;;;;5028929;28;20438;-66
2022/08/29 07:26:17;;;;;;;3.80;3.17;;;19.90;99.90;;;;;;5032216;28;20612;-66
2022/08/29 07:28:48;;;;;;;3.33;2.50;;;20.10;99.90;;;;;;5031449;28;20476;-65
2022/08/29 07:31:15;;;;;;;4.07;3.60;;;20.40;99.90;;;;;;5031447;28;20473;-66
2022/08/29 07:33:42;;;;;;;3.10;2.27;;;20.80;99.90;;;;;;5031071;28;20525;-66
2022/08/29 07:36:09;;;;;;;3.30;2.57;;;21.30;99.90;;;;;;5031861;28;20473;-65
2022/08/29 07:38:38;;;;;;;4.20;2.50;;;21.80;99.90;;;;;;5031824;28;20533;-66
2022/08/29 07:41:07;;;;;;;7.70;2.20;;;22.60;99.90;;;;;;5031785;28;20529;-67
2022/08/29 07:43:35;;;;;;;3.13;2.33;;;24.10;99.70;;;;;;5030504;28;20465;-65
2022/08/29 07:46:08;;;;;;;4.07;2.20;;;26.50;93.40;;;;;;5031272;28;20525;-66
2022/08/29 07:48:35;;;;;;;3.20;2.37;;;29.00;88.10;;;;;;5031799;28;20478;-66
2022/08/29 07:51:02;;;;;;;3.40;3.00;;;30.80;76.00;;;;;;5031648;28;20859;-65
2022/08/29 07:53:29;;;;;;;4.90;2.40;;;32.20;66.30;;;;;;5031075;28;20525;-66
2022/08/29 07:55:56;;;;;;;4.00;2.40;;;33.30;55.00;;;;;;5031499;28;20520;-67
2022/08/29 07:58:24;;;;;;;3.50;2.60;;;34.20;52.10;;;;;;5031528;28;21011;-66
2022/08/29 08:00:51;;;;;;;3.57;2.73;;;35.10;50.20;;;;;;5031619;28;20529;-66
2022/08/29 08:03:20;;;;;;;3.37;2.80;;;35.90;48.80;;;;;;5029547;28;20524;-66
2022/08/29 08:05:47;;;;;;;3.17;2.40;;;36.80;47.20;;;;;;5031160;28;20496;-67
2022/08/29 08:08:14;;;;;;;2.90;2.10;;;37.60;43.30;;;;;;5030846;28;20529;-67
2022/08/29 08:10:41;;;;;;;3.20;2.23;;;38.30;42.20;;;;;;5030932;28;20516;-66
2022/08/29 08:13:08;;;;;;;2.93;2.23;;;39.10;39.80;;;;;;5030905;28;20442;-66
2022/08/29 08:15:37;;;;;;;2.60;2.20;;;39.70;38.00;;;;;;5030825;28;20532;-66
2022/08/29 08:18:05;;;;;;;2.80;2.50;;;40.20;35.90;;;;;;5030883;28;20982;-67
2022/08/29 08:20:33;;;;;;;3.47;2.20;;;40.70;35.90;;;;;;5030894;28;20437;-66
2022/08/29 08:23:00;;;;;;;2.93;2.20;;;41.20;34.20;;;;;;5030900;28;20846;-66
2022/08/29 08:25:27;;;;;;;3.80;2.40;;;41.80;33.90;;;;;;5030872;28;20563;-66
2022/08/29 08:27:54;;;;;;;4.73;2.90;;;42.40;31.70;;;;;;5031143;28;20857;-68
2022/08/29 08:30:21;;;;;;;3.57;2.80;;;42.90;29.80;;;;;;5030982;28;20653;-66
2022/08/29 08:32:48;;;;;;;2.87;2.27;;;43.20;29.90;;;;;;5030696;28;20457;-66
2022/08/29 08:35:16;;;;;;;3.37;2.73;;;43.60;28.90;;;;;;5027578;28;20813;-66
2022/08/29 08:37:44;;;;;;;4.20;3.53;;;43.90;27.30;;;;;;5030575;28;20449;-66
2022/08/29 08:40:20;;;;;;;4.00;3.47;;;44.30;28.00;;;;;;5031023;28;20925;-66
2022/08/29 08:42:48;;;;;;;4.80;3.57;;;44.60;27.20;;;;;;5027455;28;20572;-66
2022/08/29 08:45:18;;;;;;;4.03;2.87;;;45.10;26.50;;;;;;5030956;28;20905;-66
2022/08/29 08:47:55;;;;;;;2.97;2.63;;;45.40;26.00;;;;;;5031038;28;20501;-66
2022/08/29 08:50:30;;;;;;;3.23;2.67;;;45.70;25.70;;;;;;5033305;28;20488;-66
2022/08/29 08:53:06;;;;;;;3.23;2.77;;;46.10;25.10;;;;;;5034389;28;20959;-66
2022/08/29 08:55:41;;;;;;;4.33;2.90;;;46.60;24.30;;;;;;5034702;28;20493;-66
2022/08/29 08:58:18;;;;;;;4.30;2.97;;;46.80;23.60;;;;;;5035034;28;20453;-66
2022/08/29 09:00:52;;;;;;;5.63;2.87;;;47.10;22.70;;;;;;5034745;28;20469;-66
2022/08/29 09:03:52;;;;;;;2.93;2.47;;;47.40;22.80;;;;;;5031467;28;20864;-66
2022/08/29 09:06:31;;;;;;;8.10;3.10;;;47.60;22.30;;;;;;5022736;28;20554;-66
2022/08/29 09:09:09;;;;;;;4.37;3.23;;;47.90;23.00;;;;;;5032697;28;20445;-66
2022/08/29 09:11:45;;;;;;;4.10;3.03;;;47.90;22.50;;;;;;5034587;28;20445;-66
2022/08/29 09:14:25;;;;;;;3.63;3.00;;;48.10;22.10;;;;;;5034405;28;20449;-66
2022/08/29 09:16:58;;;;;;;3.53;3.10;;;48.20;22.50;;;;;;5031804;28;20433;-66
2022/08/29 09:19:30;;;;;;;3.60;3.17;;;47.90;21.70;;;;;;5034652;28;20536;-66
2022/08/29 09:22:08;;;;;;;4.93;3.13;;;47.80;21.50;;;;;;5034032;28;20441;-66
2022/08/29 09:24:42;;;;;;;3.60;3.13;;;48.30;22.00;;;;;;5034463;28;20532;-66
2022/08/29 09:27:17;;;;;;;4.90;3.23;;;48.90;22.00;;;;;;5033828;28;20491;-66
2022/08/29 09:29:45;;;;;;;3.90;3.33;;;48.70;20.60;;;;;;5033803;28;20437;-66
2022/08/29 09:32:14;;;;;;;3.97;3.40;;;48.60;21.30;;;;;;5033912;28;20947;-66
2022/08/29 09:34:45;;;;;;;4.87;3.90;;;48.80;20.90;;;;;;5033820;28;20480;-66
2022/08/29 09:37:24;;;;;;;4.10;3.50;;;49.10;20.40;;;;;;5034325;28;20543;-65
2022/08/29 09:40:00;;;;;;;5.83;3.90;;;49.00;20.20;;;;;;5031359;28;20437;-65
2022/08/29 09:42:32;;;;;;;4.17;3.63;;;48.80;19.50;;;;;;5031488;28;20524;-66
2022/08/29 09:45:07;;;;;;;3.47;3.17;;;48.50;19.60;;;;;;5035294;28;20975;-71
2022/08/29 09:47:34;;;;;;;5.93;3.70;;;48.20;20.10;;;;;;5035826;28;20530;-66
2022/08/29 09:50:11;;;;;;;6.53;3.40;;;48.00;19.50;;;;;;5035801;28;20499;-66
2022/08/29 09:52:40;;;;;;;3.87;3.47;;;47.40;20.90;;;;;;5035652;28;20970;-66
2022/08/29 09:55:22;;;;;;;4.37;3.40;;;46.60;21.10;;;;;;5035406;28;20527;-65
2022/08/29 09:57:53;;;;;;;4.50;3.80;;;46.10;21.20;;;;;;5035261;28;20445;-66
2022/08/29 10:00:27;;;;;;;3.90;3.17;;;46.10;20.60;;;;;;5035067;28;20969;-65
2022/08/29 10:02:58;;;;;;;6.87;3.83;;;45.40;21.10;;;;;;5034268;28;20441;-65
2022/08/29 10:05:39;;;;;;;3.80;3.03;;;44.60;21.70;;;;;;5035236;28;20470;-65
2022/08/29 10:08:07;;;;;;;4.70;3.80;;;44.40;22.70;;;;;;5035363;28;20798;-66
2022/08/29 10:10:36;;;;;;;4.43;3.77;;;44.30;21.90;;;;;;5035440;28;20771;-66
2022/08/29 10:13:10;;;;;;;3.70;3.13;;;44.30;21.80;;;;;;5035447;28;20448;-65
2022/08/29 10:15:43;;;;;;;4.43;3.20;;;44.40;22.70;;;;;;5035046;28;20520;-65
2022/08/29 10:18:23;;;;;;;5.17;3.70;;;44.10;21.80;;;;;;5035310;28;20855;-65
2022/08/29 10:21:09;;;;;;;4.27;3.60;;;43.80;21.80;;;;;;5035139;28;20438;-65
2022/08/29 10:23:46;;;;;;;4.93;3.20;;;43.40;22.70;;;;;;5034944;28;20507;-67
2022/08/29 10:26:29;;;;;;;3.50;3.20;;;43.30;23.10;;;;;;5034554;28;20434;-66
2022/08/29 10:29:04;;;;;;;5.30;3.47;;;42.90;22.20;;;;;;5035090;28;20442;-66
2022/08/29 10:31:37;;;;;;;3.77;3.37;;;42.30;23.90;;;;;;5034506;28;20442;-66
2022/08/29 10:34:16;;;;;;;6.40;3.90;;;42.00;23.60;;;;;;5035090;28;20453;-65
2022/08/29 10:36:50;;;;;;;4.90;3.70;;;41.60;24.30;;;;;;5034761;28;20520;-66
2022/08/29 10:39:27;;;;;;;5.20;3.00;;;41.30;24.00;;;;;;5032322;28;20796;-67
2022/08/29 10:41:59;;;;;;;5.83;3.10;;;41.00;24.40;;;;;;5031696;28;20503;-66
2022/08/29 10:44:33;;;;;;;4.77;3.50;;;40.70;24.40;;;;;;5034119;28;20442;-65
2022/08/29 10:47:20;;;;;;;3.63;3.10;;;40.50;24.60;;;;;;5034007;28;20496;-66
2022/08/29 10:50:02;;;;;;;5.00;3.20;;;40.30;24.70;;;;;;5034478;28;20506;-65
2022/08/29 10:52:33;;;;;;;4.13;3.57;;;40.00;25.40;;;;;;5034167;28;20500;-66
2022/08/29 10:55:09;;;;;;;7.03;3.57;;;39.70;25.50;;;;;;5033186;28;20472;-65
2022/08/29 10:57:59;;;;;;;4.30;3.20;;;39.30;25.20;;;;;;5033373;28;20813;-65
2022/08/29 11:00:36;;;;;;;4.73;3.80;;;39.20;26.60;;;;;;5032540;28;20496;-65
2022/08/29 11:03:13;;;;;;;4.40;3.80;;;38.90;26.70;;;;;;5033113;28;20473;-66
2022/08/29 11:05:45;;;;;;;4.83;3.63;;;38.70;28.90;;;;;;5033646;28;20448;-65
2022/08/29 11:08:17;;;;;;;6.10;4.10;;;38.60;26.10;;;;;;5033191;28;20438;-65
2022/08/29 11:10:48;;;;;;;4.00;3.43;;;38.30;28.70;;;;;;5033639;28;20436;-65
2022/08/29 11:13:22;;;;;;;3.97;3.07;;;38.10;29.00;;;;;;5032969;28;20430;-65
2022/08/29 11:15:57;;;;;;;5.90;4.37;;;37.70;29.30;;;;;;5033470;28;20599;-66
2022/08/29 11:18:33;;;;;;;5.73;4.60;;;37.20;27.90;;;;;;5032645;28;20508;-65
2022/08/29 11:21:16;;;;;;;4.80;4.10;;;36.70;28.50;;;;;;5030798;28;20541;-66
2022/08/29 11:23:45;;;;;;;4.20;3.50;;;36.10;31.80;;;;;;5033459;28;20448;-65
2022/08/29 11:26:20;;;;;;;6.40;3.87;;;35.90;32.40;;;;;;5033680;28;20437;-66
2022/08/29 11:28:56;;;;;;;5.13;3.80;;;35.80;32.40;;;;;;5033863;28;20870;-65
2022/08/29 11:31:37;;;;;;;4.97;3.83;;;35.80;32.80;;;;;;5033442;28;20950;-65
2022/08/29 11:34:23;;;;;;;6.60;4.30;;;35.50;30.30;;;;;;5033779;28;20446;-65
2022/08/29 11:37:15;;;;;;;4.07;3.67;;;35.30;33.20;;;;;;5033217;28;20484;-65
2022/08/29 11:39:55;;;;;;;4.40;4.00;;;35.20;34.40;;;;;;5033123;28;20488;-65
2022/08/29 11:42:28;;;;;;;5.53;4.03;;;35.10;32.70;;;;;;5033393;28;20508;-65
2022/08/29 11:44:59;;;;;;;4.73;3.87;;;34.80;32.60;;;;;;5029934;28;20998;-65
2022/08/29 11:47:37;;;;;;;6.20;3.70;;;34.50;34.80;;;;;;5031609;28;20481;-65
2022/08/29 11:50:17;;;;;;;4.33;3.70;;;34.20;33.60;;;;;;5029385;28;20504;-67
2022/08/29 11:52:52;;;;;;;4.73;3.60;;;33.90;34.20;;;;;;5031413;28;20430;-65
2022/08/29 11:55:30;;;;;;;4.27;3.73;;;33.80;36.20;;;;;;5031664;28;20446;-65
2022/08/29 11:58:01;;;;;;;4.40;3.80;;;33.90;35.30;;;;;;5030834;28;20942;-66
2022/08/29 12:00:49;;;;;;;4.97;4.00;;;33.90;35.80;;;;;;5031352;28;20976;-66
2022/08/29 12:03:53;;;;;;;5.83;4.10;;;33.90;35.60;;;;;;5030667;28;20438;-65
2022/08/29 12:06:37;;;;;;;5.03;3.77;;;33.60;33.40;;;;;;5030064;28;20437;-65
2022/08/29 12:09:23;;;;;;;6.40;4.47;;;33.50;35.30;;;;;;5031307;28;20840;-65
2022/08/29 12:12:44;;;;;;;4.77;4.27;;;33.30;36.30;;;;;;5030309;28;20441;-65
2022/08/29 12:15:59;;;;;;;7.10;3.97;;;33.20;37.40;;;;;;5030122;28;20442;-65
2022/08/29 12:18:44;;;;;;;5.40;3.70;;;32.90;37.30;;;;;;5030131;28;20426;-65
2022/08/29 12:21:45;;;;;;;6.43;4.73;;;32.70;37.30;;;;;;5029328;28;20829;-65
2022/08/29 12:24:35;;;;;;;7.50;3.43;;;32.60;38.10;;;;;;5029171;28;20441;-66
2022/08/29 12:27:03;;;;;;;5.20;4.07;;;32.40;37.00;;;;;;5030754;28;20521;-66
2022/08/29 12:29:32;;;;;;;4.53;4.07;;;32.50;38.30;;;;;;5030929;28;20453;-66
2022/08/29 12:32:29;;;;;;;4.93;4.40;;;32.40;37.20;;;;;;5030944;28;20441;-66
2022/08/29 12:35:27;;;;;;;5.40;3.43;;;32.30;36.40;;;;;;5022919;28;20469;-65
2022/08/29 12:38:16;;;;;;;6.10;3.27;;;32.20;36.80;;;;;;5029938;28;20528;-65
2022/08/29 12:40:53;;;;;;;5.30;4.13;;;32.10;35.90;;;;;;5030023;28;20504;-66
2022/08/29 12:43:33;;;;;;;5.07;3.80;;;31.90;37.30;;;;;;5028849;28;20836;-65
2022/08/29 12:46:03;;;;;;;8.13;4.20;;;31.80;38.30;;;;;;5029721;28;20525;-65
2022/08/29 12:48:36;;;;;;;7.50;4.73;;;31.60;36.90;;;;;;5030761;28;20484;-65
2022/08/29 12:51:05;;;;;;;6.17;3.50;;;31.50;37.30;;;;;;5030748;28;20441;-65
2022/08/29 12:53:33;;;;;;;5.37;3.50;;;31.40;38.40;;;;;;5030444;28;20512;-65
2022/08/29 12:56:03;;;;;;;4.87;3.57;;;31.30;38.20;;;;;;5030510;28;20485;-67
2022/08/29 12:58:37;;;;;;;4.87;4.03;;;31.20;37.20;;;;;;5030730;28;20480;-66
2022/08/29 13:01:07;;;;;;;7.10;3.67;;;31.20;38.60;;;;;;5030683;28;20472;-65
2022/08/29 13:03:35;;;;;;;4.90;3.47;;;31.20;38.10;;;;;;5030458;28;20441;-65
2022/08/29 13:06:12;;;;;;;5.50;4.30;;;31.30;38.60;;;;;;5030167;28;20503;-65